Airfield :
LOGIN :

Register | Disclaimer

   EN    FR    IT 

 










Legend :    VFR   Marginal VFR   IFR   Intensive IFR   Very Intensive IFR
Visi :
Ceiling :
>= 8 km
>= 3000ft
5 to 8 km
1000 to 3000 ft
1500m to 5 km
500 to 1000 ft
800 to 1500m
200 to 500 ft
< 800m
< 200 ft
Symbols :   Thunderstorms  Fog  Heavy snow  Heavy precipitations  Wind > 20 kt
SIGMETs :     Misc.  Thunderstorms  Icing  Turbulence  Mountain Waves  Volcanic Ashes







- Airport Elevation : 102 ft
- IATA code : CNG
- Download approach charts


LFBG - Cognac

CURRENT METAR :
  • 200930Z AUTO 07002KT 6000 BKN005 OVC018 08/07 Q1026 BECMG 4000 BR BKN014

EXPIRED METARs :
  • 200900Z AUTO VRB02KT 6000 OVC017 07/07 Q1026 BECMG 4000 BR BKN014
  • 200830Z AUTO 09002KT 3400 BR OVC016 07/06 Q1026 BECMG BKN014
  • 200800Z AUTO 08002KT 4100 BR OVC014 06/05 Q1025 TEMPO 0500 FG BECMG OVC003
  • 200730Z AUTO 07002KT 2700 BR FEW003 OVC013 05/05 Q1025 BECMG 3000 BR OVC003
  • 200700Z AUTO 05002KT 2500 BR SCT003 BKN007 OVC013 05/04 Q1025 TEMPO 0500 FG BECMG OVC003

TAF TAF LFBG
Valid from the 20 at 09:00 until the 21 at 09:00 UTC


200800Z 2009/2109 VRB02KT 4000 BR BKN014
TEMPO 2009/2011 SCT005
BECMG 2011/2013 16007KT
BECMG 2019/2021 0500 FG
No reported NOTAMs for that airfield.



MET'MAP, your aeronautical weather chart ! - Copyright ORBIFLY December 2007 - Disclaimer

ORBIFLY MET'MAP TEAM :

Programming & Development : Alexandra Zaïnal
Concept & Development : Baudouin d'Aumeries
Co-Development & Prog : Marc-Olivier Méhu
Technical & hardware support : Manuel Goepfert

Contact : metmap@orbifly.com




SOURCES & CREDITS :

   NOAA